Aviation Digital Data Service (ADDS)

Output produced by METARs form (2337 UTC 18 August 2019)
found at http://www.aviationweather.gov/metar/data/
 
Forecast for: CYLW (KELOWNA APT , BC, CA)
Text: TAF CYLW 181838Z 1819/1907 18005KT P6SM FEW070
Forecast period: 1900 to 2000 UTC 18 August 2019
Forecast type: FROM: standard forecast or significant change
Winds: from the S (180 degrees) at 6 MPH (5 knots; 2.6 m/s)
Visibility: 6 or more miles 10+ km)
Ceiling: at least 12,000 feet AGL
Clouds: few clouds at 7000 feet AGL
Weather: no significant weather forecast for this period
Text: BECMG 1820/1822 19010KT RMK FCST BASED ON AUTO OBS. NXT FCST BY 190100Z
Forecast period: 2000 UTC 18 August 2019 to 0700 UTC 19 August 2019
Forecast type: BECOMING: Conditions expected to become as follows by 2200 UTC 18 August 2019
Winds: from the S (190 degrees) at 12 MPH (10 knots; 5.1 m/s)
Visibility: 6 or more miles 10+ km)
Ceiling: at least 12,000 feet AGL
Clouds: few clouds at 7000 feet AGL
Weather: no significant weather forecast for this period